sensor_id;sensor_type;location;lat;lon;timestamp;P1;durP1;ratioP1;P2;durP2;ratioP2
1328;SDS011;658;48.820;9.354;2023-12-07T00:03:47;1.60;;;1.50;;
1328;SDS011;658;48.820;9.354;2023-12-07T00:07:48;1.83;;;1.73;;
1328;SDS011;658;48.820;9.354;2023-12-07T00:11:48;1.73;;;1.63;;
1328;SDS011;658;48.820;9.354;2023-12-07T00:15:49;1.80;;;1.70;;
1328;SDS011;658;48.820;9.354;2023-12-07T00:19:52;1.60;;;1.50;;
1328;SDS011;658;48.820;9.354;2023-12-07T00:23:53;2.20;;;2.10;;
1328;SDS011;658;48.820;9.354;2023-12-07T00:27:54;2.23;;;2.03;;
1328;SDS011;658;48.820;9.354;2023-12-07T00:31:55;2.00;;;1.90;;
1328;SDS011;658;48.820;9.354;2023-12-07T00:35:55;2.03;;;1.93;;
1328;SDS011;658;48.820;9.354;2023-12-07T00:39:58;1.80;;;1.70;;
1328;SDS011;658;48.820;9.354;2023-12-07T00:43:59;1.57;;;1.47;;
1328;SDS011;658;48.820;9.354;2023-12-07T00:47:59;1.90;;;1.80;;
1328;SDS011;658;48.820;9.354;2023-12-07T00:52:00;1.80;;;1.70;;
1328;SDS011;658;48.820;9.354;2023-12-07T00:56:02;1.63;;;1.53;;
1328;SDS011;658;48.820;9.354;2023-12-07T01:00:03;1.80;;;1.70;;
1328;SDS011;658;48.820;9.354;2023-12-07T01:04:05;2.03;;;1.93;;
1328;SDS011;658;48.820;9.354;2023-12-07T01:08:06;2.00;;;1.90;;
1328;SDS011;658;48.820;9.354;2023-12-07T01:12:06;2.20;;;2.00;;
1328;SDS011;658;48.820;9.354;2023-12-07T01:16:09;1.87;;;1.77;;
1328;SDS011;658;48.820;9.354;2023-12-07T01:20:10;1.90;;;1.80;;
1328;SDS011;658;48.820;9.354;2023-12-07T01:24:12;2.17;;;2.07;;
1328;SDS011;658;48.820;9.354;2023-12-07T01:28:13;1.90;;;1.80;;
1328;SDS011;658;48.820;9.354;2023-12-07T01:32:13;2.03;;;1.93;;
1328;SDS011;658;48.820;9.354;2023-12-07T01:36:14;2.00;;;1.90;;
1328;SDS011;658;48.820;9.354;2023-12-07T01:40:15;1.90;;;1.80;;
1328;SDS011;658;48.820;9.354;2023-12-07T01:44:15;2.47;;;1.97;;
1328;SDS011;658;48.820;9.354;2023-12-07T01:48:16;1.97;;;1.87;;
1328;SDS011;658;48.820;9.354;2023-12-07T01:52:17;2.60;;;2.40;;
1328;SDS011;658;48.820;9.354;2023-12-07T01:56:18;2.00;;;1.90;;
1328;SDS011;658;48.820;9.354;2023-12-07T02:00:19;1.70;;;1.60;;
1328;SDS011;658;48.820;9.354;2023-12-07T02:04:20;2.00;;;1.90;;
1328;SDS011;658;48.820;9.354;2023-12-07T02:08:20;1.73;;;1.63;;
1328;SDS011;658;48.820;9.354;2023-12-07T02:12:21;1.93;;;1.83;;
1328;SDS011;658;48.820;9.354;2023-12-07T02:16:31;2.20;;;2.10;;
1328;SDS011;658;48.820;9.354;2023-12-07T02:20:44;1.67;;;1.57;;
1328;SDS011;658;48.820;9.354;2023-12-07T02:24:48;2.10;;;2.00;;
1328;SDS011;658;48.820;9.354;2023-12-07T02:29:10;2.00;;;1.90;;
1328;SDS011;658;48.820;9.354;2023-12-07T02:33:10;1.97;;;1.87;;
1328;SDS011;658;48.820;9.354;2023-12-07T02:37:15;1.80;;;1.70;;
1328;SDS011;658;48.820;9.354;2023-12-07T02:41:20;1.70;;;1.60;;
1328;SDS011;658;48.820;9.354;2023-12-07T02:45:21;2.20;;;2.10;;
1328;SDS011;658;48.820;9.354;2023-12-07T02:49:22;2.20;;;2.10;;
1328;SDS011;658;48.820;9.354;2023-12-07T02:53:22;2.27;;;2.17;;
1328;SDS011;658;48.820;9.354;2023-12-07T02:57:23;1.90;;;1.80;;
1328;SDS011;658;48.820;9.354;2023-12-07T03:01:23;2.10;;;2.00;;
1328;SDS011;658;48.820;9.354;2023-12-07T03:05:24;1.93;;;1.70;;
1328;SDS011;658;48.820;9.354;2023-12-07T03:09:24;2.30;;;2.20;;
1328;SDS011;658;48.820;9.354;2023-12-07T03:13:25;2.00;;;1.90;;
1328;SDS011;658;48.820;9.354;2023-12-07T03:17:26;2.00;;;1.90;;
1328;SDS011;658;48.820;9.354;2023-12-07T03:21:26;1.57;;;1.47;;
1328;SDS011;658;48.820;9.354;2023-12-07T03:25:27;2.20;;;2.10;;
1328;SDS011;658;48.820;9.354;2023-12-07T03:29:27;1.93;;;1.83;;
1328;SDS011;658;48.820;9.354;2023-12-07T03:33:28;2.00;;;1.90;;
1328;SDS011;658;48.820;9.354;2023-12-07T03:37:28;1.93;;;1.83;;
1328;SDS011;658;48.820;9.354;2023-12-07T03:41:29;1.97;;;1.87;;
1328;SDS011;658;48.820;9.354;2023-12-07T03:45:30;2.00;;;1.90;;
1328;SDS011;658;48.820;9.354;2023-12-07T03:49:30;2.27;;;2.17;;
1328;SDS011;658;48.820;9.354;2023-12-07T03:53:33;1.60;;;1.50;;
1328;SDS011;658;48.820;9.354;2023-12-07T03:57:34;2.10;;;2.00;;
1328;SDS011;658;48.820;9.354;2023-12-07T04:01:34;2.50;;;2.23;;
1328;SDS011;658;48.820;9.354;2023-12-07T04:05:37;2.07;;;1.97;;
1328;SDS011;658;48.820;9.354;2023-12-07T04:09:38;1.97;;;1.87;;
1328;SDS011;658;48.820;9.354;2023-12-07T04:13:39;2.07;;;1.97;;
1328;SDS011;658;48.820;9.354;2023-12-07T04:17:42;1.90;;;1.80;;
1328;SDS011;658;48.820;9.354;2023-12-07T04:21:42;2.70;;;2.50;;
1328;SDS011;658;48.820;9.354;2023-12-07T04:25:43;2.00;;;1.90;;
1328;SDS011;658;48.820;9.354;2023-12-07T04:29:44;1.90;;;1.80;;
1328;SDS011;658;48.820;9.354;2023-12-07T04:33:44;2.00;;;1.90;;
1328;SDS011;658;48.820;9.354;2023-12-07T04:37:45;2.30;;;2.20;;
1328;SDS011;658;48.820;9.354;2023-12-07T04:41:45;2.07;;;1.97;;
1328;SDS011;658;48.820;9.354;2023-12-07T04:45:46;2.40;;;2.30;;
1328;SDS011;658;48.820;9.354;2023-12-07T04:49:49;2.33;;;2.13;;
1328;SDS011;658;48.820;9.354;2023-12-07T04:53:49;1.87;;;1.77;;
1328;SDS011;658;48.820;9.354;2023-12-07T04:57:50;2.07;;;1.97;;
1328;SDS011;658;48.820;9.354;2023-12-07T05:01:50;2.43;;;2.23;;
1328;SDS011;658;48.820;9.354;2023-12-07T05:05:51;1.70;;;1.70;;
1328;SDS011;658;48.820;9.354;2023-12-07T05:09:52;2.00;;;1.90;;
1328;SDS011;658;48.820;9.354;2023-12-07T05:13:52;2.13;;;2.03;;
1328;SDS011;658;48.820;9.354;2023-12-07T05:17:53;2.00;;;1.90;;
1328;SDS011;658;48.820;9.354;2023-12-07T05:21:53;1.90;;;1.80;;
1328;SDS011;658;48.820;9.354;2023-12-07T05:25:54;2.10;;;2.00;;
1328;SDS011;658;48.820;9.354;2023-12-07T05:29:54;2.00;;;1.90;;
1328;SDS011;658;48.820;9.354;2023-12-07T05:33:57;1.93;;;1.83;;
1328;SDS011;658;48.820;9.354;2023-12-07T05:37:58;2.30;;;2.10;;
1328;SDS011;658;48.820;9.354;2023-12-07T05:41:58;3.00;;;2.10;;
1328;SDS011;658;48.820;9.354;2023-12-07T05:45:59;2.33;;;1.87;;
1328;SDS011;658;48.820;9.354;2023-12-07T05:50:00;4.10;;;2.20;;
1328;SDS011;658;48.820;9.354;2023-12-07T05:54:03;3.93;;;2.07;;
1328;SDS011;658;48.820;9.354;2023-12-07T05:58:03;2.60;;;2.00;;
1328;SDS011;658;48.820;9.354;2023-12-07T06:02:04;1.97;;;1.77;;
1328;SDS011;658;48.820;9.354;2023-12-07T06:06:04;3.47;;;2.60;;
1328;SDS011;658;48.820;9.354;2023-12-07T06:10:05;2.53;;;2.33;;
1328;SDS011;658;48.820;9.354;2023-12-07T06:14:06;2.83;;;2.20;;
1328;SDS011;658;48.820;9.354;2023-12-07T06:18:07;2.30;;;2.10;;
1328;SDS011;658;48.820;9.354;2023-12-07T06:22:08;2.80;;;2.60;;
1328;SDS011;658;48.820;9.354;2023-12-07T06:26:09;1.90;;;1.80;;
1328;SDS011;658;48.820;9.354;2023-12-07T06:30:09;2.40;;;2.20;;
1328;SDS011;658;48.820;9.354;2023-12-07T06:34:10;3.00;;;2.40;;
1328;SDS011;658;48.820;9.354;2023-12-07T06:38:11;3.57;;;2.40;;
1328;SDS011;658;48.820;9.354;2023-12-07T06:42:12;2.50;;;2.23;;
1328;SDS011;658;48.820;9.354;2023-12-07T06:46:12;2.40;;;2.20;;
1328;SDS011;658;48.820;9.354;2023-12-07T06:50:13;2.23;;;2.13;;
1328;SDS011;658;48.820;9.354;2023-12-07T06:54:14;2.07;;;1.97;;
1328;SDS011;658;48.820;9.354;2023-12-07T06:58:14;3.50;;;2.20;;
1328;SDS011;658;48.820;9.354;2023-12-07T07:02:15;1.90;;;1.80;;
1328;SDS011;658;48.820;9.354;2023-12-07T07:06:16;2.10;;;2.00;;
1328;SDS011;658;48.820;9.354;2023-12-07T07:10:16;2.93;;;2.50;;
1328;SDS011;658;48.820;9.354;2023-12-07T07:14:17;2.60;;;2.40;;
1328;SDS011;658;48.820;9.354;2023-12-07T07:18:19;2.00;;;1.90;;
1328;SDS011;658;48.820;9.354;2023-12-07T07:22:24;2.30;;;2.10;;
1328;SDS011;658;48.820;9.354;2023-12-07T07:26:24;2.03;;;1.83;;
1328;SDS011;658;48.820;9.354;2023-12-07T07:30:25;2.40;;;2.30;;
1328;SDS011;658;48.820;9.354;2023-12-07T07:34:26;1.97;;;1.87;;
1328;SDS011;658;48.820;9.354;2023-12-07T07:38:27;2.10;;;2.00;;
1328;SDS011;658;48.820;9.354;2023-12-07T07:42:27;2.50;;;2.30;;
1328;SDS011;658;48.820;9.354;2023-12-07T07:46:29;1.97;;;1.87;;
1328;SDS011;658;48.820;9.354;2023-12-07T07:50:30;2.20;;;2.00;;
1328;SDS011;658;48.820;9.354;2023-12-07T07:54:30;1.90;;;1.80;;
1328;SDS011;658;48.820;9.354;2023-12-07T07:58:33;2.20;;;2.10;;
1328;SDS011;658;48.820;9.354;2023-12-07T08:02:34;2.50;;;2.37;;
1328;SDS011;658;48.820;9.354;2023-12-07T08:06:36;1.90;;;1.80;;
1328;SDS011;658;48.820;9.354;2023-12-07T08:10:37;2.20;;;2.10;;
1328;SDS011;658;48.820;9.354;2023-12-07T08:14:39;2.07;;;1.97;;
1328;SDS011;658;48.820;9.354;2023-12-07T08:18:43;2.20;;;2.10;;
1328;SDS011;658;48.820;9.354;2023-12-07T08:22:44;2.37;;;2.27;;
1328;SDS011;658;48.820;9.354;2023-12-07T08:26:45;2.27;;;2.07;;
1328;SDS011;658;48.820;9.354;2023-12-07T08:30:47;1.90;;;1.80;;
1328;SDS011;658;48.820;9.354;2023-12-07T08:34:48;1.70;;;1.60;;
1328;SDS011;658;48.820;9.354;2023-12-07T08:38:49;2.20;;;2.10;;
1328;SDS011;658;48.820;9.354;2023-12-07T08:42:50;2.23;;;2.00;;
1328;SDS011;658;48.820;9.354;2023-12-07T08:46:53;2.07;;;1.97;;
1328;SDS011;658;48.820;9.354;2023-12-07T08:50:54;2.03;;;1.93;;
1328;SDS011;658;48.820;9.354;2023-12-07T08:54:55;1.80;;;1.70;;
1328;SDS011;658;48.820;9.354;2023-12-07T08:58:55;1.83;;;1.73;;
1328;SDS011;658;48.820;9.354;2023-12-07T09:02:56;1.93;;;1.83;;
1328;SDS011;658;48.820;9.354;2023-12-07T09:06:57;2.07;;;1.97;;
1328;SDS011;658;48.820;9.354;2023-12-07T09:10:57;1.80;;;1.70;;
1328;SDS011;658;48.820;9.354;2023-12-07T09:14:58;1.63;;;1.53;;
1328;SDS011;658;48.820;9.354;2023-12-07T09:19:01;1.60;;;1.50;;
1328;SDS011;658;48.820;9.354;2023-12-07T09:23:02;2.20;;;2.10;;
1328;SDS011;658;48.820;9.354;2023-12-07T09:27:07;1.70;;;1.60;;
1328;SDS011;658;48.820;9.354;2023-12-07T09:31:07;1.70;;;1.60;;
1328;SDS011;658;48.820;9.354;2023-12-07T09:35:10;1.63;;;1.53;;
1328;SDS011;658;48.820;9.354;2023-12-07T09:39:20;1.83;;;1.73;;
1328;SDS011;658;48.820;9.354;2023-12-07T09:43:21;1.70;;;1.60;;
1328;SDS011;658;48.820;9.354;2023-12-07T09:47:22;2.10;;;2.00;;
1328;SDS011;658;48.820;9.354;2023-12-07T09:51:22;1.87;;;1.77;;
1328;SDS011;658;48.820;9.354;2023-12-07T09:55:24;2.23;;;2.03;;
1328;SDS011;658;48.820;9.354;2023-12-07T09:59:25;1.73;;;1.63;;
1328;SDS011;658;48.820;9.354;2023-12-07T10:03:25;1.50;;;1.40;;
1328;SDS011;658;48.820;9.354;2023-12-07T10:07:33;1.70;;;1.60;;
1328;SDS011;658;48.820;9.354;2023-12-07T10:11:38;2.10;;;2.00;;
1328;SDS011;658;48.820;9.354;2023-12-07T10:15:38;1.43;;;1.43;;
1328;SDS011;658;48.820;9.354;2023-12-07T10:19:39;1.80;;;1.70;;
1328;SDS011;658;48.820;9.354;2023-12-07T10:23:40;1.53;;;1.50;;
1328;SDS011;658;48.820;9.354;2023-12-07T10:27:43;1.90;;;1.80;;
1328;SDS011;658;48.820;9.354;2023-12-07T10:31:44;2.13;;;2.03;;
1328;SDS011;658;48.820;9.354;2023-12-07T10:35:47;3.07;;;2.30;;
1328;SDS011;658;48.820;9.354;2023-12-07T10:39:50;1.90;;;1.80;;
1328;SDS011;658;48.820;9.354;2023-12-07T10:43:52;1.60;;;1.50;;
1328;SDS011;658;48.820;9.354;2023-12-07T10:47:54;1.73;;;1.63;;
1328;SDS011;658;48.820;9.354;2023-12-07T10:52:08;2.07;;;1.97;;
1328;SDS011;658;48.820;9.354;2023-12-07T10:56:16;1.87;;;1.77;;
1328;SDS011;658;48.820;9.354;2023-12-07T11:00:26;1.70;;;1.60;;
1328;SDS011;658;48.820;9.354;2023-12-07T11:04:27;1.53;;;1.50;;
1328;SDS011;658;48.820;9.354;2023-12-07T11:12:45;1.70;;;1.60;;
1328;SDS011;658;48.820;9.354;2023-12-07T11:16:52;2.00;;;1.90;;
1328;SDS011;658;48.820;9.354;2023-12-07T11:20:57;1.70;;;1.60;;
1328;SDS011;658;48.820;9.354;2023-12-07T11:24:58;1.67;;;1.57;;
1328;SDS011;658;48.820;9.354;2023-12-07T11:29:02;1.70;;;1.60;;
1328;SDS011;658;48.820;9.354;2023-12-07T11:33:03;1.97;;;1.60;;
1328;SDS011;658;48.820;9.354;2023-12-07T11:37:09;1.73;;;1.63;;
1328;SDS011;658;48.820;9.354;2023-12-07T11:41:10;1.83;;;1.73;;
1328;SDS011;658;48.820;9.354;2023-12-07T11:45:11;1.90;;;1.80;;
1328;SDS011;658;48.820;9.354;2023-12-07T11:49:14;1.50;;;1.40;;
1328;SDS011;658;48.820;9.354;2023-12-07T11:53:19;1.53;;;1.43;;
1328;SDS011;658;48.820;9.354;2023-12-07T11:57:24;1.47;;;1.37;;
1328;SDS011;658;48.820;9.354;2023-12-07T12:01:25;1.60;;;1.50;;
1328;SDS011;658;48.820;9.354;2023-12-07T12:05:27;1.27;;;1.17;;
1328;SDS011;658;48.820;9.354;2023-12-07T12:09:30;1.57;;;1.47;;
1328;SDS011;658;48.820;9.354;2023-12-07T12:13:34;1.30;;;1.30;;
1328;SDS011;658;48.820;9.354;2023-12-07T12:17:35;1.20;;;1.20;;
1328;SDS011;658;48.820;9.354;2023-12-07T12:21:39;1.63;;;1.53;;
1328;SDS011;658;48.820;9.354;2023-12-07T12:25:40;1.73;;;1.63;;
1328;SDS011;658;48.820;9.354;2023-12-07T12:29:44;1.90;;;1.80;;
1328;SDS011;658;48.820;9.354;2023-12-07T12:33:47;1.83;;;1.70;;
1328;SDS011;658;48.820;9.354;2023-12-07T12:37:52;1.40;;;1.40;;
1328;SDS011;658;48.820;9.354;2023-12-07T12:41:54;1.40;;;1.30;;
1328;SDS011;658;48.820;9.354;2023-12-07T12:45:55;1.53;;;1.43;;
1328;SDS011;658;48.820;9.354;2023-12-07T12:49:57;1.40;;;1.30;;
1328;SDS011;658;48.820;9.354;2023-12-07T12:53:59;1.50;;;1.40;;
1328;SDS011;658;48.820;9.354;2023-12-07T12:58:00;1.43;;;1.33;;
1328;SDS011;658;48.820;9.354;2023-12-07T13:02:03;2.23;;;2.03;;
1328;SDS011;658;48.820;9.354;2023-12-07T13:06:04;1.50;;;1.40;;
1328;SDS011;658;48.820;9.354;2023-12-07T13:10:05;1.60;;;1.50;;
1328;SDS011;658;48.820;9.354;2023-12-07T13:14:08;1.27;;;1.20;;
1328;SDS011;658;48.820;9.354;2023-12-07T13:18:08;1.50;;;1.40;;
1328;SDS011;658;48.820;9.354;2023-12-07T13:22:09;1.60;;;1.50;;
1328;SDS011;658;48.820;9.354;2023-12-07T13:26:10;1.43;;;1.33;;
1328;SDS011;658;48.820;9.354;2023-12-07T13:30:11;1.30;;;1.20;;
1328;SDS011;658;48.820;9.354;2023-12-07T13:34:12;1.40;;;1.30;;
1328;SDS011;658;48.820;9.354;2023-12-07T13:38:13;1.40;;;1.30;;
1328;SDS011;658;48.820;9.354;2023-12-07T13:42:14;1.10;;;1.10;;
1328;SDS011;658;48.820;9.354;2023-12-07T13:46:15;1.47;;;1.43;;
1328;SDS011;658;48.820;9.354;2023-12-07T13:50:16;1.27;;;1.27;;
1328;SDS011;658;48.820;9.354;2023-12-07T13:54:19;1.43;;;1.33;;
1328;SDS011;658;48.820;9.354;2023-12-07T13:58:21;1.30;;;1.20;;
1328;SDS011;658;48.820;9.354;2023-12-07T14:02:22;1.10;;;1.10;;
1328;SDS011;658;48.820;9.354;2023-12-07T14:06:23;1.13;;;1.13;;
1328;SDS011;658;48.820;9.354;2023-12-07T14:10:24;1.10;;;1.10;;
1328;SDS011;658;48.820;9.354;2023-12-07T14:14:25;1.17;;;1.17;;
1328;SDS011;658;48.820;9.354;2023-12-07T14:18:26;1.40;;;1.30;;
1328;SDS011;658;48.820;9.354;2023-12-07T14:22:27;1.37;;;1.27;;
1328;SDS011;658;48.820;9.354;2023-12-07T14:26:27;1.17;;;1.17;;
1328;SDS011;658;48.820;9.354;2023-12-07T14:30:28;1.20;;;1.20;;
1328;SDS011;658;48.820;9.354;2023-12-07T14:34:31;1.20;;;1.20;;
1328;SDS011;658;48.820;9.354;2023-12-07T14:38:32;1.20;;;1.10;;
1328;SDS011;658;48.820;9.354;2023-12-07T14:42:33;1.30;;;1.20;;
1328;SDS011;658;48.820;9.354;2023-12-07T14:46:34;1.00;;;1.00;;
1328;SDS011;658;48.820;9.354;2023-12-07T14:50:35;1.30;;;1.20;;
1328;SDS011;658;48.820;9.354;2023-12-07T14:54:37;1.07;;;1.07;;
1328;SDS011;658;48.820;9.354;2023-12-07T14:58:38;1.10;;;1.10;;
1328;SDS011;658;48.820;9.354;2023-12-07T15:02:44;1.17;;;1.10;;
1328;SDS011;658;48.820;9.354;2023-12-07T15:06:45;1.23;;;1.23;;
1328;SDS011;658;48.820;9.354;2023-12-07T15:10:46;1.20;;;1.20;;
1328;SDS011;658;48.820;9.354;2023-12-07T15:14:52;1.63;;;1.23;;
1328;SDS011;658;48.820;9.354;2023-12-07T15:18:52;1.53;;;1.43;;
1328;SDS011;658;48.820;9.354;2023-12-07T15:22:53;1.07;;;1.07;;
1328;SDS011;658;48.820;9.354;2023-12-07T15:26:54;0.90;;;0.90;;
1328;SDS011;658;48.820;9.354;2023-12-07T15:30:54;1.10;;;1.10;;
1328;SDS011;658;48.820;9.354;2023-12-07T15:34:58;1.40;;;1.30;;
1328;SDS011;658;48.820;9.354;2023-12-07T15:38:58;0.97;;;0.97;;
1328;SDS011;658;48.820;9.354;2023-12-07T15:42:59;1.10;;;1.10;;
1328;SDS011;658;48.820;9.354;2023-12-07T15:47:00;1.07;;;1.07;;
1328;SDS011;658;48.820;9.354;2023-12-07T15:51:00;1.00;;;1.00;;
1328;SDS011;658;48.820;9.354;2023-12-07T15:55:01;1.03;;;1.03;;
1328;SDS011;658;48.820;9.354;2023-12-07T15:59:02;1.10;;;1.10;;
1328;SDS011;658;48.820;9.354;2023-12-07T16:03:03;1.17;;;1.17;;
1328;SDS011;658;48.820;9.354;2023-12-07T16:07:05;1.00;;;1.00;;
1328;SDS011;658;48.820;9.354;2023-12-07T16:11:08;0.97;;;0.97;;
1328;SDS011;658;48.820;9.354;2023-12-07T16:15:09;1.03;;;1.03;;
1328;SDS011;658;48.820;9.354;2023-12-07T16:19:12;1.10;;;1.10;;
1328;SDS011;658;48.820;9.354;2023-12-07T16:23:12;0.90;;;0.90;;
1328;SDS011;658;48.820;9.354;2023-12-07T16:27:13;1.00;;;1.00;;
1328;SDS011;658;48.820;9.354;2023-12-07T16:31:14;1.20;;;1.20;;
1328;SDS011;658;48.820;9.354;2023-12-07T16:35:15;1.07;;;0.97;;
1328;SDS011;658;48.820;9.354;2023-12-07T16:39:16;1.30;;;1.30;;
1328;SDS011;658;48.820;9.354;2023-12-07T16:43:17;0.90;;;0.90;;
1328;SDS011;658;48.820;9.354;2023-12-07T16:47:18;1.00;;;1.00;;
1328;SDS011;658;48.820;9.354;2023-12-07T16:51:19;0.90;;;0.90;;
1328;SDS011;658;48.820;9.354;2023-12-07T16:55:22;1.50;;;1.40;;
1328;SDS011;658;48.820;9.354;2023-12-07T16:59:25;1.07;;;1.07;;
1328;SDS011;658;48.820;9.354;2023-12-07T17:03:26;1.33;;;1.23;;
1328;SDS011;658;48.820;9.354;2023-12-07T17:07:27;1.30;;;1.20;;
1328;SDS011;658;48.820;9.354;2023-12-07T17:11:28;1.17;;;1.17;;
1328;SDS011;658;48.820;9.354;2023-12-07T17:15:31;3.20;;;2.90;;
1328;SDS011;658;48.820;9.354;2023-12-07T17:19:32;2.00;;;1.80;;
1328;SDS011;658;48.820;9.354;2023-12-07T17:23:32;1.63;;;1.53;;
1328;SDS011;658;48.820;9.354;2023-12-07T17:27:36;3.07;;;1.67;;
1328;SDS011;658;48.820;9.354;2023-12-07T17:31:36;1.57;;;1.40;;
1328;SDS011;658;48.820;9.354;2023-12-07T17:35:40;1.90;;;1.80;;
1328;SDS011;658;48.820;9.354;2023-12-07T17:39:41;1.73;;;1.63;;
1328;SDS011;658;48.820;9.354;2023-12-07T17:43:41;2.57;;;1.80;;
1328;SDS011;658;48.820;9.354;2023-12-07T17:47:48;2.30;;;2.17;;
1328;SDS011;658;48.820;9.354;2023-12-07T17:51:55;2.20;;;2.10;;
1328;SDS011;658;48.820;9.354;2023-12-07T17:55:56;4.83;;;1.93;;
1328;SDS011;658;48.820;9.354;2023-12-07T17:59:59;2.07;;;1.63;;
1328;SDS011;658;48.820;9.354;2023-12-07T18:03:59;2.30;;;1.80;;
1328;SDS011;658;48.820;9.354;2023-12-07T18:08:00;1.90;;;1.80;;
1328;SDS011;658;48.820;9.354;2023-12-07T18:12:05;3.50;;;1.70;;
1328;SDS011;658;48.820;9.354;2023-12-07T18:16:07;1.63;;;1.53;;
1328;SDS011;658;48.820;9.354;2023-12-07T18:20:08;1.90;;;1.80;;
1328;SDS011;658;48.820;9.354;2023-12-07T18:24:09;1.70;;;1.60;;
1328;SDS011;658;48.820;9.354;2023-12-07T18:28:14;1.90;;;1.80;;
1328;SDS011;658;48.820;9.354;2023-12-07T18:32:15;2.50;;;2.30;;
1328;SDS011;658;48.820;9.354;2023-12-07T18:36:17;1.87;;;1.70;;
1328;SDS011;658;48.820;9.354;2023-12-07T18:40:19;2.07;;;1.97;;
1328;SDS011;658;48.820;9.354;2023-12-07T18:44:19;2.00;;;1.90;;
1328;SDS011;658;48.820;9.354;2023-12-07T18:48:20;1.83;;;1.67;;
1328;SDS011;658;48.820;9.354;2023-12-07T18:52:21;1.80;;;1.70;;
1328;SDS011;658;48.820;9.354;2023-12-07T18:56:23;2.07;;;1.97;;
1328;SDS011;658;48.820;9.354;2023-12-07T19:00:27;1.60;;;1.50;;
1328;SDS011;658;48.820;9.354;2023-12-07T19:04:27;2.13;;;2.00;;
1328;SDS011;658;48.820;9.354;2023-12-07T19:08:28;2.13;;;1.93;;
1328;SDS011;658;48.820;9.354;2023-12-07T19:12:30;1.60;;;1.50;;
1328;SDS011;658;48.820;9.354;2023-12-07T19:16:30;1.90;;;1.80;;
1328;SDS011;658;48.820;9.354;2023-12-07T19:20:31;1.90;;;1.80;;
1328;SDS011;658;48.820;9.354;2023-12-07T19:24:33;1.73;;;1.63;;
1328;SDS011;658;48.820;9.354;2023-12-07T19:28:33;1.80;;;1.70;;
1328;SDS011;658;48.820;9.354;2023-12-07T19:32:34;2.00;;;1.90;;
1328;SDS011;658;48.820;9.354;2023-12-07T19:36:39;2.40;;;1.80;;
1328;SDS011;658;48.820;9.354;2023-12-07T19:40:40;1.70;;;1.60;;
1328;SDS011;658;48.820;9.354;2023-12-07T19:44:43;2.10;;;1.90;;
1328;SDS011;658;48.820;9.354;2023-12-07T19:48:44;4.80;;;1.83;;
1328;SDS011;658;48.820;9.354;2023-12-07T19:52:47;1.90;;;1.80;;
1328;SDS011;658;48.820;9.354;2023-12-07T19:56:48;1.60;;;1.50;;
1328;SDS011;658;48.820;9.354;2023-12-07T20:00:48;2.00;;;1.90;;
1328;SDS011;658;48.820;9.354;2023-12-07T20:04:49;1.80;;;1.70;;
1328;SDS011;658;48.820;9.354;2023-12-07T20:08:50;2.60;;;2.40;;
1328;SDS011;658;48.820;9.354;2023-12-07T20:12:51;3.07;;;2.77;;
1328;SDS011;658;48.820;9.354;2023-12-07T20:16:51;4.40;;;3.37;;
1328;SDS011;658;48.820;9.354;2023-12-07T20:20:52;5.63;;;3.93;;
1328;SDS011;658;48.820;9.354;2023-12-07T20:24:52;9.83;;;6.27;;
1328;SDS011;658;48.820;9.354;2023-12-07T20:28:53;10.17;;;6.97;;
1328;SDS011;658;48.820;9.354;2023-12-07T20:32:54;37.30;;;18.33;;
1328;SDS011;658;48.820;9.354;2023-12-07T20:36:54;28.57;;;16.50;;
1328;SDS011;658;48.820;9.354;2023-12-07T20:40:55;29.77;;;16.27;;
1328;SDS011;658;48.820;9.354;2023-12-07T20:44:55;35.47;;;19.60;;
1328;SDS011;658;48.820;9.354;2023-12-07T20:48:56;38.90;;;19.93;;
1328;SDS011;658;48.820;9.354;2023-12-07T20:52:57;30.67;;;18.03;;
1328;SDS011;658;48.820;9.354;2023-12-07T20:57:00;36.60;;;19.20;;
1328;SDS011;658;48.820;9.354;2023-12-07T21:01:02;39.90;;;21.17;;
1328;SDS011;658;48.820;9.354;2023-12-07T21:05:03;35.73;;;18.27;;
1328;SDS011;658;48.820;9.354;2023-12-07T21:09:04;34.97;;;19.17;;
1328;SDS011;658;48.820;9.354;2023-12-07T21:13:05;31.27;;;19.97;;
1328;SDS011;658;48.820;9.354;2023-12-07T21:17:06;38.43;;;21.53;;
1328;SDS011;658;48.820;9.354;2023-12-07T21:21:06;39.30;;;20.17;;
1328;SDS011;658;48.820;9.354;2023-12-07T21:25:07;36.77;;;19.90;;
1328;SDS011;658;48.820;9.354;2023-12-07T21:29:08;36.50;;;18.30;;
1328;SDS011;658;48.820;9.354;2023-12-07T21:33:08;32.57;;;19.10;;
1328;SDS011;658;48.820;9.354;2023-12-07T21:37:09;35.53;;;19.07;;
1328;SDS011;658;48.820;9.354;2023-12-07T21:41:10;35.60;;;19.20;;
1328;SDS011;658;48.820;9.354;2023-12-07T21:45:13;32.50;;;18.63;;
1328;SDS011;658;48.820;9.354;2023-12-07T21:49:14;34.03;;;18.70;;
1328;SDS011;658;48.820;9.354;2023-12-07T21:53:14;34.40;;;17.33;;
1328;SDS011;658;48.820;9.354;2023-12-07T21:57:15;27.90;;;16.80;;
1328;SDS011;658;48.820;9.354;2023-12-07T22:01:16;29.57;;;17.17;;
1328;SDS011;658;48.820;9.354;2023-12-07T22:05:17;24.97;;;16.20;;
1328;SDS011;658;48.820;9.354;2023-12-07T22:09:18;28.47;;;16.67;;
1328;SDS011;658;48.820;9.354;2023-12-07T22:13:18;26.90;;;15.90;;
1328;SDS011;658;48.820;9.354;2023-12-07T22:17:21;27.63;;;15.63;;
1328;SDS011;658;48.820;9.354;2023-12-07T22:21:21;26.17;;;15.53;;
1328;SDS011;658;48.820;9.354;2023-12-07T22:25:22;27.37;;;14.67;;
1328;SDS011;658;48.820;9.354;2023-12-07T22:29:23;25.20;;;14.50;;
1328;SDS011;658;48.820;9.354;2023-12-07T22:33:23;23.10;;;14.37;;
1328;SDS011;658;48.820;9.354;2023-12-07T22:37:24;25.33;;;15.17;;
1328;SDS011;658;48.820;9.354;2023-12-07T22:41:25;21.27;;;13.73;;
1328;SDS011;658;48.820;9.354;2023-12-07T22:45:26;23.40;;;13.00;;
1328;SDS011;658;48.820;9.354;2023-12-07T22:49:27;18.87;;;12.10;;
1328;SDS011;658;48.820;9.354;2023-12-07T22:53:33;22.00;;;12.53;;
1328;SDS011;658;48.820;9.354;2023-12-07T22:57:34;18.43;;;12.10;;
1328;SDS011;658;48.820;9.354;2023-12-07T23:01:35;18.23;;;12.40;;
1328;SDS011;658;48.820;9.354;2023-12-07T23:05:36;16.40;;;10.57;;
1328;SDS011;658;48.820;9.354;2023-12-07T23:09:36;18.77;;;11.50;;
1328;SDS011;658;48.820;9.354;2023-12-07T23:13:39;15.13;;;10.60;;
1328;SDS011;658;48.820;9.354;2023-12-07T23:17:40;16.73;;;11.20;;
1328;SDS011;658;48.820;9.354;2023-12-07T23:21:40;14.93;;;9.73;;
1328;SDS011;658;48.820;9.354;2023-12-07T23:25:41;14.70;;;9.03;;
1328;SDS011;658;48.820;9.354;2023-12-07T23:29:43;18.30;;;9.97;;
1328;SDS011;658;48.820;9.354;2023-12-07T23:33:44;14.73;;;9.50;;
1328;SDS011;658;48.820;9.354;2023-12-07T23:37:45;14.80;;;9.10;;
1328;SDS011;658;48.820;9.354;2023-12-07T23:41:45;13.43;;;8.43;;
1328;SDS011;658;48.820;9.354;2023-12-07T23:45:46;12.93;;;8.80;;
1328;SDS011;658;48.820;9.354;2023-12-07T23:49:51;13.47;;;8.17;;
1328;SDS011;658;48.820;9.354;2023-12-07T23:53:52;11.23;;;8.43;;
1328;SDS011;658;48.820;9.354;2023-12-07T23:57:56;12.17;;;8.33;;
